Time;durP1;ratioP1;P1;durP2;ratioP2;P2;SDS_P1;SDS_P2;PMS_P1;PMS_P2;Temp;Humidity;BMP_temperature;BMP_pressure;BME280_temperature;BME280_humidity;BME280_pressure;Samples;Min_cycle;Max_cycle;Signal;HPM_P1;HPM_P2
2023/06/23 00:02:16;;;;;;;;;;;;;;;19.65;56.02;100521.56;5053052;28;5535;-78
2023/06/23 00:05:08;;;;;;;;;;;;;;;19.65;56.36;100515.28;5045628;28;4603;-77
2023/06/23 00:08:00;;;;;;;;;;;;;;;19.64;56.25;100519.06;5046151;28;5390;-75
2023/06/23 00:10:52;;;;;;;;;;;;;;;19.63;56.35;100510.06;5046454;28;5803;-78
2023/06/23 00:13:43;;;;;;;;;;;;;;;19.61;56.15;100504.06;5049226;28;4705;-76
2023/06/23 00:16:36;;;;;;;;;;;;;;;19.59;56.34;100503.53;5043772;28;4612;-75
2023/06/23 00:19:31;;;;;;;;;;;;;;;19.60;56.45;100493.41;5042800;28;5697;-78
2023/06/23 00:22:23;;;;;;;;;;;;;;;19.58;56.22;100499.16;5042940;28;5046;-77
2023/06/23 00:25:15;;;;;;;;;;;;;;;19.56;56.42;100504.09;5044655;28;5385;-77
2023/06/23 00:28:07;;;;;;;;;;;;;;;19.55;55.95;100507.09;5044712;28;5223;-78
2023/06/23 00:30:59;;;;;;;;;;;;;;;19.52;56.22;100511.19;5040619;28;4763;-77
2023/06/23 00:33:51;;;;;;;;;;;;;;;19.52;56.31;100508.47;5044907;28;4766;-76
2023/06/23 00:36:42;;;;;;;;;;;;;;;19.50;56.19;100507.91;5044516;28;5023;-78
2023/06/23 00:39:34;;;;;;;;;;;;;;;19.49;56.19;100509.03;5044645;28;4770;-76
2023/06/23 00:42:26;;;;;;;;;;;;;;;19.48;56.48;100505.50;5048027;28;4478;-77
2023/06/23 00:45:18;;;;;;;;;;;;;;;19.02;56.60;100448.31;5048511;28;4631;-76
2023/06/23 00:48:13;;;;;;;;;;;;;;;19.47;56.31;100511.22;5047954;28;4573;-76
2023/06/23 00:51:05;;;;;;;;;;;;;;;19.46;56.58;100526.78;5044864;28;4664;-77
2023/06/23 00:53:58;;;;;;;;;;;;;;;19.45;56.26;100529.81;5045386;28;4686;-77
2023/06/23 00:56:50;;;;;;;;;;;;;;;19.39;56.39;100529.00;5046562;28;4826;-78
2023/06/23 00:59:42;;;;;;;;;;;;;;;19.42;56.45;100523.00;5048824;28;5533;-77
2023/06/23 01:02:34;;;;;;;;;;;;;;;19.42;56.19;100524.91;5050556;28;5169;-78
2023/06/23 01:05:26;;;;;;;;;;;;;;;19.40;56.23;100527.91;5046885;28;4853;-78
2023/06/23 01:08:18;;;;;;;;;;;;;;;19.40;56.50;100524.38;5046052;28;5182;-77
2023/06/23 01:11:11;;;;;;;;;;;;;;;19.38;56.11;100532.00;5046698;28;5276;-75
2023/06/23 01:14:03;;;;;;;;;;;;;;;19.37;56.34;100525.75;5046026;28;4361;-76
2023/06/23 01:16:55;;;;;;;;;;;;;;;19.36;56.22;100534.22;5045074;28;4892;-77
2023/06/23 01:19:47;;;;;;;;;;;;;;;19.35;56.13;100530.66;5042678;28;4824;-76
2023/06/23 01:22:39;;;;;;;;;;;;;;;19.33;56.45;100532.88;5045935;28;4910;-76
2023/06/23 01:25:31;;;;;;;;;;;;;;;19.33;56.29;100532.06;5045040;28;5563;-76
2023/06/23 01:28:23;;;;;;;;;;;;;;;19.32;56.11;100539.41;5044607;28;5418;-75
2023/06/23 01:31:15;;;;;;;;;;;;;;;19.30;56.14;100538.88;5044393;28;5364;-77
2023/06/23 01:34:08;;;;;;;;;;;;;;;19.30;56.22;100538.88;5044930;28;4984;-75
2023/06/23 01:37:00;;;;;;;;;;;;;;;19.29;56.17;100550.88;5047178;28;4899;-77
2023/06/23 01:39:51;;;;;;;;;;;;;;;19.28;56.19;100549.25;5046265;28;4586;-78
2023/06/23 01:42:43;;;;;;;;;;;;;;;19.27;56.14;100544.91;5043017;28;4591;-77
2023/06/23 01:45:39;;;;;;;;;;;;;;;19.25;56.40;100547.09;5047471;28;4434;-76
2023/06/23 01:48:31;;;;;;;;;;;;;;;19.24;56.27;100546.28;5045087;28;4939;-76
2023/06/23 01:51:22;;;;;;;;;;;;;;;19.22;55.99;100542.19;5044670;28;4714;-75
2023/06/23 01:54:14;;;;;;;;;;;;;;;19.21;56.45;100546.00;5044721;28;4831;-76
2023/06/23 01:57:06;;;;;;;;;;;;;;;19.20;56.01;100549.81;5042402;28;4823;-78
2023/06/23 01:59:58;;;;;;;;;;;;;;;18.98;56.32;100514.69;5049177;28;4599;-75
2023/06/23 02:02:50;;;;;;;;;;;;;;;19.16;56.02;100546.84;5046001;28;4909;-78
2023/06/23 02:05:45;;;;;;;;;;;;;;;19.15;56.01;100545.22;5048004;28;4653;-75
2023/06/23 02:08:37;;;;;;;;;;;;;;;19.15;56.17;100555.28;5046122;28;4688;-76
2023/06/23 02:11:29;;;;;;;;;;;;;;;19.14;56.10;100550.94;5046786;28;4549;-78
2023/06/23 02:14:21;;;;;;;;;;;;;;;19.13;55.92;100554.75;5046704;28;5115;-78
2023/06/23 02:17:13;;;;;;;;;;;;;;;19.11;56.38;100552.28;5047037;28;5072;-76
2023/06/23 02:20:13;;;;;;;;;;;;;;;19.12;55.87;100558.56;5043191;28;4873;-76
2023/06/23 02:23:05;;;;;;;;;;;;;;;19.09;56.09;100548.19;5046003;28;4462;-78
2023/06/23 02:25:57;;;;;;;;;;;;;;;19.11;55.92;100552.28;5043867;28;4678;-77
2023/06/23 02:28:49;;;;;;;;;;;;;;;19.08;55.93;100554.75;5041972;28;5371;-77
2023/06/23 02:31:41;;;;;;;;;;;;;;;19.08;55.84;100552.03;5043780;28;5001;-77
2023/06/23 02:34:34;;;;;;;;;;;;;;;19.15;56.01;100553.41;5043265;28;4824;-76
2023/06/23 02:37:26;;;;;;;;;;;;;;;19.24;55.10;100568.09;5042702;28;4844;-76
2023/06/23 02:40:18;;;;;;;;;;;;;;;19.29;55.09;100559.06;5043565;28;4752;-77
2023/06/23 02:43:10;;;;;;;;;;;;;;;19.17;55.81;100572.22;5040820;28;5692;-76
2023/06/23 02:46:02;;;;;;;;;;;;;;;19.14;55.49;100568.13;5047607;28;4599;-77
2023/06/23 02:48:53;;;;;;;;;;;;;;;19.27;55.12;100567.56;5046283;28;4979;-77
2023/06/23 02:51:45;;;;;;;;;;;;;;;19.36;54.58;100567.81;5047176;28;4930;-78
2023/06/23 02:54:37;;;;;;;;;;;;;;;19.54;54.12;100566.38;5048115;28;4289;-76
2023/06/23 02:57:29;;;;;;;;;;;;;;;19.47;54.27;100560.38;5045782;28;4445;-77
2023/06/23 03:00:22;;;;;;;;;;;;;;;19.65;53.50;100561.72;5047531;28;5488;-76
2023/06/23 03:03:14;;;;;;;;;;;;;;;19.71;53.04;100572.34;5047249;28;5116;-76
2023/06/23 03:06:05;;;;;;;;;;;;;;;19.60;53.58;100578.09;5047403;28;4472;-76
2023/06/23 03:08:57;;;;;;;;;;;;;;;19.91;52.82;100576.06;5046885;28;4458;-78
2023/06/23 03:11:49;;;;;;;;;;;;;;;19.70;53.36;100586.28;5043987;28;4633;-79
2023/06/23 03:14:41;;;;;;;;;;;;;;;19.74;53.03;100584.63;5046135;28;5460;-77
2023/06/23 03:17:33;;;;;;;;;;;;;;;19.81;52.92;100596.06;5052646;28;4745;-77
2023/06/23 03:20:25;;;;;;;;;;;;;;;19.94;52.71;100586.44;5051083;28;4147;-77
2023/06/23 03:23:17;;;;;;;;;;;;;;;19.86;52.79;100590.59;5048925;28;4241;-75
2023/06/23 03:26:08;;;;;;;;;;;;;;;19.80;52.92;100585.44;5048546;28;4690;-79
2023/06/23 03:29:00;;;;;;;;;;;;;;;19.78;52.78;100582.97;5048705;28;5196;-75
2023/06/23 03:31:52;;;;;;;;;;;;;;;19.93;52.24;100582.88;5044889;28;5533;-77
2023/06/23 03:34:44;;;;;;;;;;;;;;;19.88;52.61;100590.28;5047912;28;4993;-76
2023/06/23 03:37:36;;;;;;;;;;;;;;;19.86;52.39;100595.25;5048844;28;5394;-78
2023/06/23 03:40:28;;;;;;;;;;;;;;;19.85;52.37;100607.25;5053774;28;4583;-77
2023/06/23 03:43:20;;;;;;;;;;;;;;;19.89;52.43;100600.94;5054015;28;5536;-76
2023/06/23 03:46:12;;;;;;;;;;;;;;;19.94;52.30;100606.41;5054770;28;5131;-76
2023/06/23 03:49:03;;;;;;;;;;;;;;;19.80;52.32;100602.63;5050723;28;5495;-76
2023/06/23 03:51:55;;;;;;;;;;;;;;;19.91;51.96;100598.78;5047361;28;5473;-78
2023/06/23 03:54:48;;;;;;;;;;;;;;;20.04;51.85;100605.53;5049079;28;5599;-78
2023/06/23 03:57:40;;;;;;;;;;;;;;;19.98;51.85;100603.91;5048138;28;4305;-77
2023/06/23 04:00:31;;;;;;;;;;;;;;;19.90;52.03;100602.56;5048904;28;4765;-77
2023/06/23 04:03:23;;;;;;;;;;;;;;;19.87;51.92;100608.59;5046641;28;4347;-76
2023/06/23 04:06:15;;;;;;;;;;;;;;;19.88;52.12;100607.53;5050139;28;4660;-78
2023/06/23 04:09:07;;;;;;;;;;;;;;;19.86;51.87;100606.97;5046606;28;5226;-78
2023/06/23 04:11:59;;;;;;;;;;;;;;;19.95;51.76;100609.94;5036962;28;4730;-75
2023/06/23 04:14:51;;;;;;;;;;;;;;;19.89;51.78;100611.88;5040583;28;4780;-76
2023/06/23 04:17:43;;;;;;;;;;;;;;;19.85;52.03;100613.53;5047112;28;4843;-75
2023/06/23 04:20:35;;;;;;;;;;;;;;;19.79;52.09;100611.09;5050345;28;4655;-76
2023/06/23 04:23:27;;;;;;;;;;;;;;;19.82;51.95;100618.75;5051720;28;4567;-76
2023/06/23 04:26:19;;;;;;;;;;;;;;;19.66;52.38;100621.53;5048035;28;4838;-77
2023/06/23 04:29:11;;;;;;;;;;;;;;;19.68;51.87;100621.28;5048435;28;4834;-76
2023/06/23 04:32:03;;;;;;;;;;;;;;;19.89;51.48;100617.34;5045187;28;4805;-77
2023/06/23 04:34:55;;;;;;;;;;;;;;;19.80;51.81;100621.78;5050242;28;5597;-76
2023/06/23 04:37:47;;;;;;;;;;;;;;;19.70;51.90;100628.06;5046991;28;4962;-76
2023/06/23 04:40:39;;;;;;;;;;;;;;;19.86;51.61;100630.75;5047625;28;4899;-76
2023/06/23 04:43:31;;;;;;;;;;;;;;;19.72;51.51;100617.69;5040262;28;4770;-77
2023/06/23 04:46:23;;;;;;;;;;;;;;;19.77;51.64;100625.06;5034164;28;4710;-77
2023/06/23 04:49:15;;;;;;;;;;;;;;;19.65;51.82;100630.84;5033349;28;5035;-77
2023/06/23 04:52:07;;;;;;;;;;;;;;;19.62;51.63;100628.63;5034900;28;5094;-78
2023/06/23 04:54:59;;;;;;;;;;;;;;;19.74;51.52;100628.34;5032409;28;4432;-78
2023/06/23 04:57:55;;;;;;;;;;;;;;;19.72;51.62;100625.88;5043124;28;4938;-77
2023/06/23 05:00:47;;;;;;;;;;;;;;;19.79;51.12;100625.56;5045921;28;4614;-76
2023/06/23 05:03:39;;;;;;;;;;;;;;;19.73;51.25;100632.97;5042280;28;4386;-77
2023/06/23 05:06:31;;;;;;;;;;;;;;;19.76;51.64;100639.00;5037037;28;4666;-76
2023/06/23 05:09:23;;;;;;;;;;;;;;;19.74;51.46;100642.00;5038786;28;4354;-76
2023/06/23 05:12:15;;;;;;;;;;;;;;;19.81;51.25;100631.59;5048853;28;4982;-77
2023/06/23 05:15:07;;;;;;;;;;;;;;;19.67;51.51;100625.88;5051472;28;5721;-78
2023/06/23 05:17:59;;;;;;;;;;;;;;;19.74;51.47;100634.63;5047200;28;5217;-76
2023/06/23 05:20:51;;;;;;;;;;;;;;;19.72;50.98;100627.81;5053243;28;4587;-76
2023/06/23 05:23:43;;;;;;;;;;;;;;;19.72;51.35;100634.09;5054114;28;4840;-76
2023/06/23 05:26:35;;;;;;;;;;;;;;;19.58;51.58;100640.38;5050773;28;5287;-75
2023/06/23 05:29:27;;;;;;;;;;;;;;;19.69;51.57;100640.09;5045959;28;4619;-76
2023/06/23 05:32:19;;;;;;;;;;;;;;;19.49;51.77;100638.22;5044443;28;4885;-77
2023/06/23 05:35:11;;;;;;;;;;;;;;;19.61;51.35;100635.16;5043255;28;4813;-76
2023/06/23 05:38:03;;;;;;;;;;;;;;;19.54;51.63;100633.84;5045506;28;4465;-77
2023/06/23 05:40:55;;;;;;;;;;;;;;;19.42;52.04;100645.06;5049650;28;5095;-75
2023/06/23 05:43:47;;;;;;;;;;;;;;;19.30;52.06;100639.91;5045333;28;5475;-77
2023/06/23 05:46:39;;;;;;;;;;;;;;;19.39;52.02;100646.44;5047477;28;5506;-76
2023/06/23 05:49:31;;;;;;;;;;;;;;;19.23;52.03;100642.91;5049687;28;4529;-77
2023/06/23 05:52:23;;;;;;;;;;;;;;;19.31;51.75;100651.63;5048132;28;5637;-77
2023/06/23 05:55:15;;;;;;;;;;;;;;;19.32;51.77;100658.72;5044898;28;4827;-77
2023/06/23 05:58:07;;;;;;;;;;;;;;;19.25;51.79;100659.84;5031711;28;4816;-77
2023/06/23 06:00:59;;;;;;;;;;;;;;;19.03;52.32;100662.88;5037432;28;5543;-77
2023/06/23 06:03:51;;;;;;;;;;;;;;;19.18;52.35;100661.22;5037983;28;5269;-76
2023/06/23 06:06:43;;;;;;;;;;;;;;;19.11;52.42;100663.41;5032927;28;4380;-78
2023/06/23 06:09:35;;;;;;;;;;;;;;;19.23;52.08;100656.53;5035064;28;5240;-76
2023/06/23 06:12:27;;;;;;;;;;;;;;;19.03;52.64;100659.28;5038703;28;4649;-78
2023/06/23 06:15:19;;;;;;;;;;;;;;;18.82;53.04;100664.78;5049013;28;5316;-75
2023/06/23 06:18:11;;;;;;;;;;;;;;;18.83;53.40;100660.94;5045959;28;4831;-76
2023/06/23 06:21:04;;;;;;;;;;;;;;;18.71;53.70;100667.72;5046364;28;5369;-78
2023/06/23 06:23:56;;;;;;;;;;;;;;;18.74;53.19;100669.94;5047161;28;4579;-77
2023/06/23 06:26:49;;;;;;;;;;;;;;;18.68;53.52;100665.50;5046958;28;5432;-77
2023/06/23 06:29:41;;;;;;;;;;;;;;;18.79;53.06;100659.81;5043657;28;5095;-76
2023/06/23 06:32:33;;;;;;;;;;;;;;;18.65;53.61;100661.44;5045512;28;4824;-78
2023/06/23 06:35:25;;;;;;;;;;;;;;;18.62;53.70;100662.00;5044781;28;5267;-77
2023/06/23 06:38:17;;;;;;;;;;;;;;;18.60;53.62;100670.44;5046853;28;4658;-77
2023/06/23 06:41:09;;;;;;;;;;;;;;;18.59;53.65;100676.16;5045289;28;4947;-76
2023/06/23 06:44:02;;;;;;;;;;;;;;;18.57;53.78;100675.63;5038519;28;5104;-76
2023/06/23 06:46:54;;;;;;;;;;;;;;;18.56;53.36;100666.63;5034485;28;4897;-76
2023/06/23 06:49:46;;;;;;;;;;;;;;;18.54;53.46;100663.31;5049514;28;4738;-77
2023/06/23 06:52:38;;;;;;;;;;;;;;;18.52;53.62;100673.69;5054254;28;5191;-75
2023/06/23 06:55:31;;;;;;;;;;;;;;;18.56;53.48;100671.22;5056193;28;4939;-77
2023/06/23 06:58:22;;;;;;;;;;;;;;;18.55;53.82;100675.06;5056395;28;4895;-76
2023/06/23 07:01:13;;;;;;;;;;;;;;;18.52;53.62;100676.41;5052184;28;4913;-75
2023/06/23 07:04:05;;;;;;;;;;;;;;;18.53;53.98;100675.34;5047654;28;5500;-77
2023/06/23 07:06:57;;;;;;;;;;;;;;;18.50;53.40;100664.97;5052771;28;5139;-77
2023/06/23 07:09:49;;;;;;;;;;;;;;;18.51;53.51;100665.78;5052409;28;4951;-76
2023/06/23 07:12:41;;;;;;;;;;;;;;;18.54;51.37;100670.69;5052376;28;5141;-77
2023/06/23 07:15:33;;;;;;;;;;;;;;;18.57;52.29;100667.44;5055427;28;5036;-77
2023/06/23 07:18:25;;;;;;;;;;;;;;;18.52;52.47;100673.69;5054477;28;5007;-76
2023/06/23 07:21:17;;;;;;;;;;;;;;;18.51;52.64;100693.06;5053711;28;4846;-76
2023/06/23 07:24:09;;;;;;;;;;;;;;;18.50;53.10;100681.34;5052799;28;4870;-76
2023/06/23 07:27:01;;;;;;;;;;;;;;;18.65;53.63;100675.09;5054820;28;5079;-76
2023/06/23 07:29:52;;;;;;;;;;;;;;;18.70;53.07;100675.06;5053702;28;4937;-76
2023/06/23 07:32:44;;;;;;;;;;;;;;;18.66;53.31;100684.09;5056159;28;4916;-77
2023/06/23 07:35:36;;;;;;;;;;;;;;;18.66;52.81;100684.91;5053004;28;4956;-76
2023/06/23 07:38:28;;;;;;;;;;;;;;;18.72;53.23;100680.28;5051235;28;5021;-77
2023/06/23 07:41:20;;;;;;;;;;;;;;;18.83;52.93;100682.78;5041787;28;5054;-77
2023/06/23 07:44:11;;;;;;;;;;;;;;;18.78;52.86;100684.66;5039511;28;5299;-76
2023/06/23 07:47:03;;;;;;;;;;;;;;;18.86;52.96;100694.25;5039535;28;4851;-76
2023/06/23 07:49:56;;;;;;;;;;;;;;;18.86;52.85;100680.59;5039346;28;4919;-74
2023/06/23 07:52:47;;;;;;;;;;;;;;;18.84;52.91;100687.13;5042163;28;4771;-77
2023/06/23 07:55:38;;;;;;;;;;;;;;;18.84;52.68;100695.31;5039753;28;5243;-75
2023/06/23 07:58:30;;;;;;;;;;;;;;;18.91;52.52;100695.03;5038243;28;4840;-76
2023/06/23 08:01:22;;;;;;;;;;;;;;;18.93;52.74;100701.06;5041326;28;5311;-76
2023/06/23 08:04:14;;;;;;;;;;;;;;;18.94;52.45;100694.53;5039079;28;5160;-77
2023/06/23 08:07:06;;;;;;;;;;;;;;;18.77;52.55;100664.75;5027015;28;4857;-77
2023/06/23 08:09:58;;;;;;;;;;;;;;;18.95;52.66;100685.25;5037897;28;4829;-76
2023/06/23 08:12:50;;;;;;;;;;;;;;;18.95;52.32;100704.34;5040447;28;4728;-77
2023/06/23 08:15:42;;;;;;;;;;;;;;;18.87;52.66;100699.41;5057279;28;4762;-76
2023/06/23 08:18:34;;;;;;;;;;;;;;;18.82;52.98;100696.66;5045296;28;5108;-77
2023/06/23 08:21:25;;;;;;;;;;;;;;;18.83;52.86;100699.13;5040963;28;4763;-76
2023/06/23 08:24:17;;;;;;;;;;;;;;;18.89;52.76;100691.78;5040561;28;4838;-76
2023/06/23 08:27:09;;;;;;;;;;;;;;;18.92;52.26;100693.16;5039593;28;4801;-77
2023/06/23 08:30:01;;;;;;;;;;;;;;;18.81;52.94;100697.78;5038926;28;4405;-77
2023/06/23 08:32:53;;;;;;;;;;;;;;;18.78;53.31;100701.84;5039012;28;5331;-77
2023/06/23 08:35:45;;;;;;;;;;;;;;;18.83;52.72;100701.06;5040696;28;5428;-77
2023/06/23 08:38:37;;;;;;;;;;;;;;;18.83;52.78;100701.06;5037882;28;4961;-75
2023/06/23 08:41:29;;;;;;;;;;;;;;;18.89;52.51;100699.16;5035125;28;5515;-77
2023/06/23 08:44:21;;;;;;;;;;;;;;;18.86;52.44;100700.50;5039612;28;4889;-75
2023/06/23 08:47:14;;;;;;;;;;;;;;;18.81;52.81;100695.84;5041941;28;4723;-76
2023/06/23 08:50:05;;;;;;;;;;;;;;;18.84;52.91;100694.50;5040903;28;5456;-75
2023/06/23 08:52:59;;;;;;;;;;;;;;;18.92;52.33;100698.63;5035964;28;4523;-75
2023/06/23 08:55:50;;;;;;;;;;;;;;;18.93;52.06;100701.06;5036635;28;4873;-75
2023/06/23 08:58:41;;;;;;;;;;;;;;;18.88;52.87;100705.69;5041430;28;5405;-77
2023/06/23 09:01:33;;;;;;;;;;;;;;;18.92;52.78;100702.16;5041309;28;4994;-75
2023/06/23 09:04:25;;;;;;;;;;;;;;;18.94;52.78;100701.88;5052891;28;5351;-76
2023/06/23 09:07:16;;;;;;;;;;;;;;;18.99;52.32;100704.59;5053868;28;4723;-76
2023/06/23 09:10:08;;;;;;;;;;;;;;;18.90;52.25;100698.88;5055828;28;5163;-76
2023/06/23 09:13:00;;;;;;;;;;;;;;;18.91;52.63;100688.78;5053470;28;4822;-76
2023/06/23 09:15:52;;;;;;;;;;;;;;;18.92;52.78;100696.69;5053781;28;5636;-74
2023/06/23 09:18:44;;;;;;;;;;;;;;;18.88;52.38;100695.59;5053205;28;5441;-78
2023/06/23 09:21:36;;;;;;;;;;;;;;;18.88;52.66;100692.84;5053622;28;4922;-74
2023/06/23 09:24:28;;;;;;;;;;;;;;;18.91;52.48;100694.22;5052762;28;5407;-77
2023/06/23 09:27:20;;;;;;;;;;;;;;;18.85;52.86;100698.84;5054117;28;5597;-78
2023/06/23 09:30:12;;;;;;;;;;;;;;;18.87;52.95;100696.69;5052723;28;4548;-74
2023/06/23 09:33:04;;;;;;;;;;;;;;;18.87;52.61;100704.06;5053760;28;5014;-76
2023/06/23 09:35:56;;;;;;;;;;;;;;;18.86;52.87;100700.50;5054841;28;5532;-77
2023/06/23 09:38:49;;;;;;;;;;;;;;;18.94;52.49;100707.31;5051898;28;4879;-76
2023/06/23 09:41:40;;;;;;;;;;;;;;;18.92;52.65;100695.88;5038191;28;4910;-76
2023/06/23 09:44:32;;;;;;;;;;;;;;;18.93;52.26;100701.06;5038070;28;4983;-77
2023/06/23 09:47:24;;;;;;;;;;;;;;;18.87;52.87;100696.69;5055825;28;4601;-77
2023/06/23 09:50:16;;;;;;;;;;;;;;;18.86;53.27;100697.78;5044780;28;4708;-76
2023/06/23 09:53:09;;;;;;;;;;;;;;;18.85;53.19;100696.13;5038005;28;4981;-76
2023/06/23 09:56:00;;;;;;;;;;;;;;;18.86;53.53;100696.97;5044243;28;4816;-78
2023/06/23 09:58:52;;;;;;;;;;;;;;;18.88;53.41;100708.41;5053442;28;5523;-75
2023/06/23 10:01:43;;;;;;;;;;;;;;;18.89;53.29;100699.16;5053124;28;5420;-76
2023/06/23 10:04:35;;;;;;;;;;;;;;;18.84;53.18;100699.97;5051643;28;4897;-76
2023/06/23 10:07:27;;;;;;;;;;;;;;;18.86;53.52;100702.44;5049262;28;4487;-77
2023/06/23 10:10:19;;;;;;;;;;;;;;;18.87;53.08;100695.88;5051976;28;4621;-76
2023/06/23 10:13:11;;;;;;;;;;;;;;;18.84;53.32;100695.31;5052178;28;5296;-75
2023/06/23 10:16:03;;;;;;;;;;;;;;;18.82;53.11;100699.41;5051071;28;5078;-75
2023/06/23 10:18:55;;;;;;;;;;;;;;;18.82;53.55;100694.78;5051631;28;4475;-75
2023/06/23 10:21:47;;;;;;;;;;;;;;;18.82;53.59;100691.22;5052883;28;5387;-75
2023/06/23 10:24:39;;;;;;;;;;;;;;;18.82;53.85;100702.13;5053708;28;4942;-76
2023/06/23 10:27:30;;;;;;;;;;;;;;;18.82;53.71;100688.47;5051871;28;4584;-76
2023/06/23 10:30:22;;;;;;;;;;;;;;;18.84;53.62;100692.59;5057406;28;4809;-75
2023/06/23 10:33:15;;;;;;;;;;;;;;;18.84;53.82;100683.59;5059553;28;4877;-76
2023/06/23 10:36:06;;;;;;;;;;;;;;;18.84;53.95;100681.66;5059054;28;4815;-76
2023/06/23 10:38:58;;;;;;;;;;;;;;;18.84;53.77;100678.94;5058888;28;4978;-75
2023/06/23 10:41:52;;;;;;;;;;;;;;;18.87;54.01;100690.41;5058329;28;5554;-77
2023/06/23 10:44:44;;;;;;;;;;;;;;;18.88;53.73;100683.84;5057033;28;4850;-75
2023/06/23 10:47:36;;;;;;;;;;;;;;;18.89;53.90;100685.50;5058036;28;5341;-76
2023/06/23 10:50:29;;;;;;;;;;;;;;;18.89;53.63;100669.94;5050682;28;5218;-78
2023/06/23 10:53:21;;;;;;;;;;;;;;;18.89;53.85;100680.88;5052467;28;5423;-77
2023/06/23 10:56:13;;;;;;;;;;;;;;;18.89;53.74;100682.78;5056633;28;4898;-77
2023/06/23 10:59:05;;;;;;;;;;;;;;;18.91;53.73;100686.84;5055724;28;5136;-78
2023/06/23 11:01:57;;;;;;;;;;;;;;;18.90;53.50;100687.94;5056712;28;5384;-76
2023/06/23 11:04:49;;;;;;;;;;;;;;;18.92;53.87;100696.69;5050206;28;4868;-76
2023/06/23 11:07:41;;;;;;;;;;;;;;;18.92;53.68;100695.88;5048920;28;5517;-76
2023/06/23 11:10:33;;;;;;;;;;;;;;;18.93;54.10;100701.06;5044851;28;4770;-76
2023/06/23 11:13:25;;;;;;;;;;;;;;;18.94;53.76;100697.25;5057382;28;5904;-75
2023/06/23 11:16:17;;;;;;;;;;;;;;;18.93;53.99;100692.06;5058882;28;4823;-75
2023/06/23 11:19:09;;;;;;;;;;;;;;;18.98;53.88;100698.34;5058359;28;4511;-75
2023/06/23 11:22:01;;;;;;;;;;;;;;;18.97;53.98;100693.97;5056280;28;5492;-77
2023/06/23 11:24:53;;;;;;;;;;;;;;;18.98;53.54;100694.78;5055321;28;4892;-76
2023/06/23 11:27:45;;;;;;;;;;;;;;;18.97;54.04;100699.44;5058143;28;5566;-75
2023/06/23 11:30:36;;;;;;;;;;;;;;;18.97;54.24;100693.97;5056942;28;4522;-76
2023/06/23 11:33:28;;;;;;;;;;;;;;;18.99;54.08;100688.22;5055529;28;4886;-76
2023/06/23 11:36:20;;;;;;;;;;;;;;;19.00;53.93;100684.41;5055447;28;5349;-75
2023/06/23 11:39:12;;;;;;;;;;;;;;;19.01;54.03;100684.16;5053844;28;4891;-78
2023/06/23 11:42:04;;;;;;;;;;;;;;;19.03;54.31;100686.59;5055754;28;4830;-78
2023/06/23 11:44:57;;;;;;;;;;;;;;;19.03;54.27;100681.97;5056563;28;4877;-76
2023/06/23 11:47:48;;;;;;;;;;;;;;;19.06;54.27;100686.06;5053796;28;4718;-76
2023/06/23 11:50:42;;;;;;;;;;;;;;;19.07;54.11;100671.31;5055337;28;4906;-75
2023/06/23 11:53:33;;;;;;;;;;;;;;;19.07;54.30;100679.50;5055699;28;4723;-78
2023/06/23 11:56:25;;;;;;;;;;;;;;;19.10;54.02;100678.16;5056018;28;5269;-77
2023/06/23 11:59:17;;;;;;;;;;;;;;;19.11;53.89;100683.31;5057384;28;5030;-75
2023/06/23 12:02:09;;;;;;;;;;;;;;;19.11;53.79;100680.59;5055998;28;4926;-74
2023/06/23 12:05:02;;;;;;;;;;;;;;;19.14;53.59;100685.50;5055032;28;4823;-75
2023/06/23 12:07:53;;;;;;;;;;;;;;;19.13;54.01;100683.06;5052643;28;4981;-76
2023/06/23 12:10:46;;;;;;;;;;;;;;;19.15;53.69;100689.03;5055872;28;4766;-77
2023/06/23 12:13:38;;;;;;;;;;;;;;;19.16;53.71;100693.44;5055292;28;5688;-76
2023/06/23 12:16:30;;;;;;;;;;;;;;;19.15;54.27;100683.56;5053392;28;5500;-76
2023/06/23 12:19:22;;;;;;;;;;;;;;;19.19;54.11;100692.88;5051860;28;4827;-77
2023/06/23 12:22:14;;;;;;;;;;;;;;;19.19;54.10;100687.41;5055002;28;5005;-76
2023/06/23 12:25:05;;;;;;;;;;;;;;;19.20;53.87;100678.94;5055664;28;5455;-76
2023/06/23 12:27:57;;;;;;;;;;;;;;;19.22;54.24;100695.06;5054059;28;4708;-76
2023/06/23 12:30:49;;;;;;;;;;;;;;;19.23;53.80;100692.03;5055119;28;5016;-75
2023/06/23 12:33:42;;;;;;;;;;;;;;;19.25;53.86;100686.31;5056598;28;5402;-76
2023/06/23 12:36:33;;;;;;;;;;;;;;;19.28;53.28;100685.78;5055293;28;4881;-76
2023/06/23 12:39:26;;;;;;;;;;;;;;;19.26;53.45;100682.50;5053350;28;5288;-75
2023/06/23 12:42:18;;;;;;;;;;;;;;;19.25;53.91;100678.13;5045994;28;4887;-76
2023/06/23 12:45:10;;;;;;;;;;;;;;;19.27;54.04;100670.50;5039220;28;4897;-77
2023/06/23 12:48:02;;;;;;;;;;;;;;;19.27;54.17;100675.97;5051167;28;4989;-77
2023/06/23 12:50:55;;;;;;;;;;;;;;;19.28;53.92;100677.59;5051707;28;4932;-75
2023/06/23 12:53:50;;;;;;;;;;;;;;;19.29;53.83;100676.47;5054589;28;5192;-76
2023/06/23 12:56:42;;;;;;;;;;;;;;;19.32;53.78;100673.19;5053330;28;4959;-75
2023/06/23 12:59:33;;;;;;;;;;;;;;;19.31;53.84;100666.09;5055345;28;4828;-76
2023/06/23 13:02:25;;;;;;;;;;;;;;;19.34;54.12;100670.19;5053765;28;4871;-76
2023/06/23 13:05:17;;;;;;;;;;;;;;;19.35;54.13;100671.84;5053886;28;4937;-77
2023/06/23 13:08:09;;;;;;;;;;;;;;;19.36;54.11;100674.31;5034941;28;4867;-74
2023/06/23 13:11:01;;;;;;;;;;;;;;;19.37;54.11;100667.72;5034946;28;5181;-76
2023/06/23 13:13:54;;;;;;;;;;;;;;;19.39;54.41;100673.75;5027675;28;5139;-76
2023/06/23 13:16:45;;;;;;;;;;;;;;;19.41;54.29;100662.53;5022924;28;5031;-77
2023/06/23 13:19:37;;;;;;;;;;;;;;;19.41;54.52;100679.75;5018116;28;5014;-76
2023/06/23 13:22:29;;;;;;;;;;;;;;;19.42;54.29;100665.00;5030837;28;4782;-76
2023/06/23 13:25:21;;;;;;;;;;;;;;;19.44;54.44;100667.44;5032848;28;5507;-76
2023/06/23 13:28:13;;;;;;;;;;;;;;;19.46;54.77;100668.00;5030630;28;5146;-76
2023/06/23 13:31:05;;;;;;;;;;;;;;;19.47;55.11;100672.34;5033942;28;4680;-75
2023/06/23 13:33:57;;;;;;;;;;;;;;;19.48;55.12;100672.09;5032284;28;5448;-76
2023/06/23 13:36:49;;;;;;;;;;;;;;;19.51;55.15;100673.47;5032575;28;4891;-76
2023/06/23 13:39:41;;;;;;;;;;;;;;;19.52;55.20;100669.63;5031890;28;4858;-76
2023/06/23 13:42:33;;;;;;;;;;;;;;;19.54;55.10;100666.63;5033597;28;5267;-75
2023/06/23 13:45:26;;;;;;;;;;;;;;;19.55;55.03;100676.44;5023978;28;4770;-77
2023/06/23 13:48:19;;;;;;;;;;;;;;;19.57;54.99;100672.34;5028825;28;5000;-76
2023/06/23 13:51:10;;;;;;;;;;;;;;;19.58;54.99;100673.97;5034354;28;5491;-74
2023/06/23 13:54:04;;;;;;;;;;;;;;;19.61;55.30;100670.69;5017943;28;4558;-75
2023/06/23 13:56:55;;;;;;;;;;;;;;;19.62;55.19;100677.81;5020085;28;4515;-76
2023/06/23 13:59:50;;;;;;;;;;;;;;;19.64;54.91;100686.53;5024557;28;4967;-75
2023/06/23 14:02:42;;;;;;;;;;;;;;;19.66;54.92;100687.09;5032411;28;4750;-74
2023/06/23 14:05:33;;;;;;;;;;;;;;;19.69;55.11;100688.47;5032382;28;4811;-77
2023/06/23 14:08:24;;;;;;;;;;;;;;;19.71;55.38;100684.38;5044878;28;4832;-75
2023/06/23 14:11:16;;;;;;;;;;;;;;;19.75;55.32;100679.16;5054127;28;5273;-77
2023/06/23 14:14:09;;;;;;;;;;;;;;;19.77;55.35;100679.72;5053554;28;4898;-75
2023/06/23 14:17:00;;;;;;;;;;;;;;;19.79;55.72;100676.69;5051603;28;4869;-75
2023/06/23 14:19:52;;;;;;;;;;;;;;;19.81;55.78;100677.22;5053193;28;4583;-75
2023/06/23 14:22:44;;;;;;;;;;;;;;;19.82;55.67;100666.00;5053100;28;5220;-75
2023/06/23 14:25:36;;;;;;;;;;;;;;;19.83;55.98;100677.78;5049879;28;4719;-77
2023/06/23 14:28:28;;;;;;;;;;;;;;;19.85;55.95;100668.19;5053647;28;4837;-75
2023/06/23 14:31:20;;;;;;;;;;;;;;;19.86;56.10;100669.84;5051696;28;4762;-77
2023/06/23 14:34:12;;;;;;;;;;;;;;;19.87;56.06;100671.47;5053335;28;5231;-75
2023/06/23 14:37:04;;;;;;;;;;;;;;;19.88;55.85;100675.84;5051635;28;5265;-75
2023/06/23 14:39:56;;;;;;;;;;;;;;;19.89;56.03;100677.47;5053145;28;4739;-76
2023/06/23 14:42:49;;;;;;;;;;;;;;;19.92;56.12;100676.91;5053856;28;5178;-77
2023/06/23 14:45:42;;;;;;;;;;;;;;;19.94;56.25;100673.88;5054110;28;5279;-75
2023/06/23 14:48:33;;;;;;;;;;;;;;;19.96;56.29;100685.38;5052525;28;4721;-75
2023/06/23 14:51:25;;;;;;;;;;;;;;;19.98;56.15;100688.66;5049995;28;5654;-76
2023/06/23 14:54:17;;;;;;;;;;;;;;;20.00;56.31;100682.88;5051787;28;4990;-74
2023/06/23 14:57:10;;;;;;;;;;;;;;;20.02;56.18;100678.78;5052537;28;5186;-76